KPUC/PUC METAR and TAF weather

Enter ICAO airport designator
Station Type Date Time Source
KPUC METAR 2020/08/05 15:53 UTC NOAA

KPUC 051553Z AUTO 17005KT 10SM CLR 28/03 A3011 RMK AO2 SLP078 T02780033


Station Type Date Time Source
KPUC Decoded METAR 2020/08/05 15:53 UTC NOAA

PRICE CARBON COUNTY AIRPORT, UT, United States (KPUC) 39-37N 110-45W 2091M
Aug 05, 2020 - 11:53 AM EDT / 2020.08.05 1553 UTC
Wind: from the S (170 degrees) at 6 MPH (5 KT):0
Visibility: 10 mile(s):0
Sky conditions: clear
Temperature: 82.0 F (27.8 C)
Dew Point: 37.9 F (3.3 C)
Relative Humidity: 20%
Pressure (altimeter): 30.11 in. Hg (1019 hPa)
ob: KPUC 051553Z AUTO 17005KT 10SM CLR 28/03 A3011 RMK AO2 SLP078 T02780033
cycle: 16

Station Type Date Time Source
KPUC TAF UTC NOAA

Error!

Example: see airport list